River Elbe — 3FWL6 — position and weather

sailwx.info

Track history (hours):
 
Tides and Currents Weather Stations Pressure Air Temp Water Temp Dewpoint Dewpoint Depression Visibility Wind Speed Wind Dir Waves Ship Positions

River Elbe

Last reported at 2018-Jun-17 13:20 UTC. Time now 2018-Jun-21 03:00 UTC.
Position N 42°59' E 006°01'.

Length 89 m; draft 3.4 m.

Type: Cargo ship. MMSI: 351895000.

Date/timePositionNaut miles runAvg speedWind from/ knotsBaromVisibWave heightAir tempDewpointWater temp
2018-Jun-17 13:20N 42°59' E 006°01'2 5.7
2018-Jun-17 13:00N 42°59' E 006°03'4 6.1
2018-Jun-17 12:17N 42°58' E 006°09'5 6.1
2018-Jun-17 11:30N 42°57' E 006°16'7 5.5
2018-Jun-17 10:10N 42°58' E 006°26'25 6.7
2018-Jun-17 06:29N 43°06' E 006°58'4 7.2
2018-Jun-17 06:00N 43°07' E 007°02'4 7.1
2018-Jun-17 05:29N 43°08' E 007°07'3 7.3
2018-Jun-17 05:00N 43°09' E 007°11'4 7.2
2018-Jun-17 04:30N 43°10' E 007°16'4 7.1
2018-Jun-17 04:00N 43°11' E 007°21'3 7.1
2018-Jun-17 03:30N 43°13' E 007°25'3 6.9
2018-Jun-17 03:00N 43°14' E 007°30'3 6.8
2018-Jun-17 02:30N 43°15' E 007°34'3 6.8
2018-Jun-17 02:00N 43°15' E 007°39'3 6.6
2018-Jun-17 01:30N 43°16' E 007°43'3 6.5
2018-Jun-17 01:00N 43°17' E 007°48'3 6.5
2018-Jun-17 00:29N 43°18' E 007°52'3 6.4
2018-Jun-17 00:00N 43°19' E 007°56'3 6.4
2018-Jun-16 23:30N 43°21' E 008°00'3 6.4
2018-Jun-16 22:59N 43°22' E 008°04'3 6.5
2018-Jun-16 22:30N 43°24' E 008°08'3 6.4
2018-Jun-16 22:00N 43°25' E 008°12'3 6.3
2018-Jun-16 21:30N 43°26' E 008°16'3 6.3
2018-Jun-16 20:59N 43°28' E 008°20'3 6.4
2018-Jun-16 20:30N 43°29' E 008°24'3 6.6
2018-Jun-16 20:00N 43°30' E 008°28'3 6.8
2018-Jun-16 19:30N 43°32' E 008°32'3 6.9
2018-Jun-16 19:00N 43°33' E 008°37'3 6.9
2018-Jun-16 18:30N 43°34' E 008°41'3 6.8
2018-Jun-16 18:00N 43°36' E 008°45'3 5.4
2018-Jun-16 17:30N 43°37' E 008°49'0 0.6
2018-Jun-16 17:00N 43°37' E 008°48'0 0.7
2018-Jun-16 16:30N 43°37' E 008°48'0 0.8
2018-Jun-16 16:00N 43°37' E 008°47'0 0.8
2018-Jun-16 15:30N 43°37' E 008°47'0 0.7
2018-Jun-16 14:59N 43°37' E 008°46'2 4.1
2018-Jun-16 14:30N 43°38' E 008°49'3 6.4
2018-Jun-16 14:00N 43°39' E 008°53'3 6.5
2018-Jun-16 13:30N 43°41' E 008°57'4 7.7
2018-Jun-16 13:00N 43°42' E 009°02'4 7.5
2018-Jun-16 12:30N 43°44' E 009°06'4 7.4
2018-Jun-16 12:00N 43°45' E 009°11'4 7.3
2018-Jun-16 11:30N 43°47' E 009°16'4 7.2
2018-Jun-16 11:00N 43°48' E 009°20'4 7.1
2018-Jun-16 10:30N 43°50' E 009°25'4 7.2
2018-Jun-16 10:00N 43°51' E 009°29'4 7.3
2018-Jun-16 09:30N 43°52' E 009°34'4 7.4
2018-Jun-16 09:00N 43°54' E 009°39'4 7.6
2018-Jun-16 08:30N 43°56' E 009°43'4 7.7
2018-Jun-16 08:00N 43°57' E 009°48'4 7.7
2018-Jun-16 07:30N 43°58' E 009°54'4 7.6
2018-Jun-16 07:00N 43°59' E 009°59'3 5.9
2018-Jun-16 06:30N 44°01' E 010°02'0 0.5
2018-Jun-16 06:00N 44°01' E 010°02'1 1.2
2018-Jun-16 05:30N 44°01' E 010°01'0 0.2
2018-Jun-16 05:00N 44°01' E 010°01'0 0.0
2018-Jun-16 04:30N 44°01' E 010°01'0 0.0
2018-Jun-16 04:00N 44°01' E 010°01'0 0.1
2018-Jun-16 03:30N 44°01' E 010°01'0 0.0
2018-Jun-16 03:00N 44°01' E 010°01'0 0.0
2018-Jun-16 02:30N 44°01' E 010°01'0 0.0
2018-Jun-16 02:00N 44°01' E 010°01'0 0.0
2018-Jun-16 01:30N 44°01' E 010°01'0 0.0
2018-Jun-16 01:00N 44°01' E 010°01'0 0.0
2018-Jun-16 00:30N 44°01' E 010°01'0 0.0
2018-Jun-16 00:00N 44°01' E 010°01'0 0.0
2018-Jun-15 23:30N 44°01' E 010°01'0 0.0
2018-Jun-15 23:00N 44°01' E 010°01'0 0.1
2018-Jun-15 22:30N 44°01' E 010°01'0 0.0
2018-Jun-15 22:00N 44°01' E 010°01'0 0.0
2018-Jun-15 21:30N 44°01' E 010°01'0 0.0
2018-Jun-15 21:00N 44°01' E 010°01'0 0.0
2018-Jun-15 20:30N 44°01' E 010°01'0 0.1
2018-Jun-15 20:00N 44°01' E 010°01'0 0.0
2018-Jun-15 19:30N 44°01' E 010°01'0 0.0
2018-Jun-15 18:57N 44°01' E 010°01'0 0.0
2018-Jun-15 18:30N 44°01' E 010°01'0 0.0
2018-Jun-15 18:00N 44°01' E 010°01'0 0.0
2018-Jun-15 17:30N 44°01' E 010°01'0 0.0
2018-Jun-15 17:00N 44°01' E 010°01'0 0.0
2018-Jun-15 16:30N 44°01' E 010°01'0 0.0
2018-Jun-15 16:00N 44°01' E 010°01'0 0.0
2018-Jun-15 15:30N 44°01' E 010°01'0 0.0
2018-Jun-15 15:00N 44°01' E 010°01'0 0.0
2018-Jun-15 14:30N 44°01' E 010°01'0 0.0
2018-Jun-15 14:00N 44°01' E 010°01'0 0.0
2018-Jun-15 13:30N 44°01' E 010°01'0 0.0
2018-Jun-15 13:00N 44°01' E 010°01'0 0.0
2018-Jun-15 12:30N 44°01' E 010°01'0 0.0
2018-Jun-15 12:00N 44°01' E 010°01'0 0.0
2018-Jun-15 11:30N 44°01' E 010°01'0 0.0
2018-Jun-15 11:00N 44°01' E 010°01'0 0.0
2018-Jun-15 10:30N 44°01' E 010°01'0 0.0
2018-Jun-15 10:00N 44°01' E 010°01'0 0.0
2018-Jun-15 09:30N 44°01' E 010°01'0 0.0
2018-Jun-15 08:57N 44°01' E 010°01'0 0.1
2018-Jun-15 08:30N 44°01' E 010°01'0 0.1
2018-Jun-15 08:00N 44°01' E 010°01'0 0.0
2018-Jun-15 07:30N 44°01' E 010°01'0 0.0
2018-Jun-15 07:00N 44°01' E 010°01'0 0.0
2018-Jun-15 06:24N 44°01' E 010°01'0 0.0
2018-Jun-15 06:00N 44°01' E 010°01'0 0.0
2018-Jun-15 05:30N 44°01' E 010°01'0 0.0
2018-Jun-15 04:57N 44°01' E 010°01'0 0.0
2018-Jun-15 04:30N 44°01' E 010°01'0 0.0
2018-Jun-15 04:00N 44°01' E 010°01'0 0.0
2018-Jun-15 03:27N 44°01' E 010°01'0 0.0
2018-Jun-15 03:00N 44°01' E 010°01'0 0.0
2018-Jun-15 02:30N 44°01' E 010°01'0 0.0
2018-Jun-15 02:00N 44°01' E 010°01'0 0.0
2018-Jun-15 01:30N 44°01' E 010°01'0 0.1
2018-Jun-15 01:00N 44°01' E 010°01'0 0.1
2018-Jun-15 00:30N 44°01' E 010°01'0 0.0
2018-Jun-15 00:00N 44°01' E 010°01'0 0.1
2018-Jun-14 23:30N 44°01' E 010°01'0 0.0
2018-Jun-14 23:00N 44°01' E 010°01'0 0.0
2018-Jun-14 22:30N 44°01' E 010°01'0 0.0
2018-Jun-14 22:00N 44°01' E 010°01'0 0.0
2018-Jun-14 21:30N 44°01' E 010°01'0 0.0
2018-Jun-14 21:00N 44°01' E 010°01'0 0.0
2018-Jun-14 20:30N 44°01' E 010°01'0 0.0
2018-Jun-14 20:00N 44°01' E 010°01'0 0.0
2018-Jun-14 19:30N 44°01' E 010°01'0 0.0
2018-Jun-14 19:00N 44°01' E 010°01'0 0.0
2018-Jun-14 18:30N 44°01' E 010°01'0 0.0
2018-Jun-14 18:00N 44°01' E 010°01'0 0.0
2018-Jun-14 17:30N 44°01' E 010°01'0 0.0
2018-Jun-14 17:00N 44°01' E 010°01'0 0.0
2018-Jun-14 16:27N 44°01' E 010°01'0 0.0
2018-Jun-14 16:00N 44°01' E 010°01'0 0.1
2018-Jun-14 15:27N 44°01' E 010°01'0 0.0
2018-Jun-14 15:00N 44°01' E 010°01'0 0.1
2018-Jun-14 14:30N 44°01' E 010°01'0 0.0
2018-Jun-14 14:00N 44°01' E 010°01'0 0.0
2018-Jun-14 13:30N 44°01' E 010°01'0 0.0
2018-Jun-14 13:00N 44°01' E 010°01'0 0.0
2018-Jun-14 12:27N 44°01' E 010°01'0 0.0
2018-Jun-14 12:00N 44°01' E 010°01'0 0.0
2018-Jun-14 11:30N 44°01' E 010°01'0 0.0
2018-Jun-14 11:00N 44°01' E 010°01'0 0.0
2018-Jun-14 10:30N 44°01' E 010°01'0 0.0
2018-Jun-14 10:00N 44°01' E 010°01'0 0.0
2018-Jun-14 09:30N 44°01' E 010°01'0 0.0
2018-Jun-14 09:00N 44°01' E 010°01'0 0.1
2018-Jun-14 08:27N 44°01' E 010°01'0 0.1
2018-Jun-14 08:00N 44°01' E 010°01'0 0.0
2018-Jun-14 07:30N 44°01' E 010°01'0 0.1
2018-Jun-14 07:00N 44°01' E 010°01'0 0.0
2018-Jun-14 06:27N 44°01' E 010°01'0 0.0
2018-Jun-14 06:00N 44°01' E 010°01'0 0.0
2018-Jun-14 05:30N 44°01' E 010°01'0 0.1
2018-Jun-14 05:00N 44°01' E 010°01'0 0.1
2018-Jun-14 04:30N 44°01' E 010°01'0 0.0
2018-Jun-14 04:00N 44°01' E 010°01'0 0.0
2018-Jun-14 03:30N 44°01' E 010°01'0 0.0
2018-Jun-14 02:57N 44°01' E 010°01'0 0.0
2018-Jun-14 02:27N 44°01' E 010°01'0 0.0
2018-Jun-14 02:00N 44°01' E 010°01'0 0.0
2018-Jun-14 01:30N 44°01' E 010°01'0 0.0
2018-Jun-14 01:00N 44°01' E 010°01'0 0.0
2018-Jun-14 00:30N 44°01' E 010°01'0 0.0
2018-Jun-14 00:00N 44°01' E 010°01'0 0.0
2018-Jun-13 23:30N 44°01' E 010°01'0 0.0
2018-Jun-13 23:00N 44°01' E 010°01'0 0.0
2018-Jun-13 22:30N 44°01' E 010°01'0 0.0
2018-Jun-13 22:00N 44°01' E 010°01'0 0.0
2018-Jun-13 21:30N 44°01' E 010°01'0 0.1
2018-Jun-13 21:00N 44°01' E 010°01'0 0.0
2018-Jun-13 20:30N 44°01' E 010°01'0 0.0
2018-Jun-13 20:00N 44°01' E 010°01'0 0.0
2018-Jun-13 19:30N 44°01' E 010°01'0 0.0
2018-Jun-13 19:00N 44°01' E 010°01'0 0.0
2018-Jun-13 18:30N 44°01' E 010°01'0 0.0
2018-Jun-13 18:00N 44°01' E 010°01'0 0.0
2018-Jun-13 17:30N 44°01' E 010°01'0 0.0
2018-Jun-13 17:00N 44°01' E 010°01'0 0.0
2018-Jun-13 16:30N 44°01' E 010°01'0 0.0
2018-Jun-13 16:00N 44°01' E 010°01'0 0.0
2018-Jun-13 15:30N 44°01' E 010°01'0 0.0
2018-Jun-13 15:00N 44°01' E 010°01'0 0.0
2018-Jun-13 14:30N 44°01' E 010°01'0 0.0
2018-Jun-13 14:00N 44°01' E 010°01'0 0.0
2018-Jun-13 13:30N 44°01' E 010°01'0 0.0
2018-Jun-13 12:57N 44°01' E 010°01'0 0.0
2018-Jun-13 12:30N 44°01' E 010°01'0 0.0
2018-Jun-13 12:00N 44°01' E 010°01'0 0.0
2018-Jun-13 11:30N 44°01' E 010°01'0 0.0
2018-Jun-13 11:00N 44°01' E 010°01'0 0.1
2018-Jun-13 10:30N 44°01' E 010°01'0 0.0
2018-Jun-13 10:00N 44°01' E 010°01'0 0.0
2018-Jun-13 09:30N 44°01' E 010°01'0 0.0
2018-Jun-13 09:00N 44°01' E 010°01'0 0.0
2018-Jun-13 08:30N 44°01' E 010°01'0 0.0
2018-Jun-13 08:00N 44°01' E 010°01'0 0.0
2018-Jun-13 07:30N 44°01' E 010°01'0 0.0
2018-Jun-13 07:00N 44°01' E 010°01'0 0.0
2018-Jun-13 06:30N 44°01' E 010°01'0 0.0
2018-Jun-13 06:00N 44°01' E 010°01'0 0.0
2018-Jun-13 05:30N 44°01' E 010°01'0 0.0
2018-Jun-13 05:00N 44°01' E 010°01'0 0.0
2018-Jun-13 04:30N 44°01' E 010°01'0 0.0
2018-Jun-13 04:00N 44°01' E 010°01'0 0.0
2018-Jun-13 03:30N 44°01' E 010°01'0 0.0
2018-Jun-13 03:00N 44°01' E 010°01'0 0.0
2018-Jun-13 02:30N 44°01' E 010°01'0 0.0
2018-Jun-13 02:00N 44°01' E 010°01'0 0.0
2018-Jun-13 01:30N 44°01' E 010°01'0 0.0
2018-Jun-13 01:00N 44°01' E 010°01'0 0.0
2018-Jun-13 00:30N 44°01' E 010°01'0 0.1
2018-Jun-13 00:00N 44°01' E 010°01'0 0.0
2018-Jun-12 23:30N 44°01' E 010°01'0 0.0
2018-Jun-12 23:00N 44°01' E 010°01'0 0.0
2018-Jun-12 22:30N 44°01' E 010°01'0 0.0
2018-Jun-12 22:00N 44°01' E 010°01'0 0.0
2018-Jun-12 21:30N 44°01' E 010°01'0 0.0
2018-Jun-12 21:00N 44°01' E 010°01'0 0.0
2018-Jun-12 20:30N 44°01' E 010°01'0 0.0
2018-Jun-12 20:00N 44°01' E 010°01'0 0.0
2018-Jun-12 19:30N 44°01' E 010°01'0 0.0
2018-Jun-12 19:00N 44°01' E 010°01'0 0.0
2018-Jun-12 18:30N 44°01' E 010°01'0 0.0
2018-Jun-12 18:00N 44°01' E 010°01'0 0.0
2018-Jun-12 17:30N 44°01' E 010°01'0 0.0
2018-Jun-12 17:00N 44°01' E 010°01'0 0.0
2018-Jun-12 16:30N 44°01' E 010°01'0 0.0
2018-Jun-12 16:00N 44°01' E 010°01'0 0.0
2018-Jun-12 15:28N 44°01' E 010°01'0 0.0
2018-Jun-12 15:00N 44°01' E 010°01'0 0.0
2018-Jun-12 14:30N 44°01' E 010°01'0 0.0
2018-Jun-12 14:00N 44°01' E 010°01'0 0.0
2018-Jun-12 13:30N 44°01' E 010°01'0 0.0
2018-Jun-12 13:00N 44°01' E 010°01'0 0.0
2018-Jun-12 12:30N 44°01' E 010°01'0 0.0
2018-Jun-12 12:00N 44°01' E 010°01'0 0.0
2018-Jun-12 11:30N 44°01' E 010°01'0 0.0
2018-Jun-12 11:00N 44°01' E 010°01'0 0.5
2018-Jun-12 10:30N 44°01' E 010°02'1 2.0
2018-Jun-12 09:59N 44°02' E 010°03'0 0.0
2018-Jun-12 09:29N 44°02' E 010°03'0 0.0
2018-Jun-12 08:53N 44°02' E 010°03'0 0.0
2018-Jun-12 08:26N 44°02' E 010°03'0 0.0
2018-Jun-12 07:50N 44°02' E 010°03'0 0.0
2018-Jun-12 07:29N 44°02' E 010°03'0 0.0
2018-Jun-12 06:59N 44°02' E 010°03'0 0.0
2018-Jun-12 06:29N 44°02' E 010°03'0 0.0
2018-Jun-12 05:59N 44°02' E 010°03'0 0.0
2018-Jun-12 05:26N 44°02' E 010°03'0 0.0
2018-Jun-12 04:59N 44°02' E 010°03'0 0.0
2018-Jun-12 04:26N 44°02' E 010°03'0 0.0
2018-Jun-12 03:59N 44°02' E 010°03'0 0.0
2018-Jun-12 03:29N 44°02' E 010°03'0 0.0
2018-Jun-12 02:59N 44°02' E 010°03'0 0.0
2018-Jun-12 02:29N 44°02' E 010°03'0 0.0
2018-Jun-12 01:59N 44°02' E 010°03'0 0.0
2018-Jun-12 01:29N 44°02' E 010°03'0 0.0
2018-Jun-12 00:59N 44°02' E 010°03'0 0.0
2018-Jun-12 00:26N 44°02' E 010°03'0 0.0
2018-Jun-11 23:56N 44°02' E 010°03'0 0.0
2018-Jun-11 23:26N 44°02' E 010°03'0 0.0
2018-Jun-11 22:59N 44°02' E 010°03'0 0.0
2018-Jun-11 22:29N 44°02' E 010°03'0 0.0
2018-Jun-11 21:56N 44°02' E 010°03'0 0.0
2018-Jun-11 21:29N 44°02' E 010°03'0 0.0
2018-Jun-11 20:53N 44°02' E 010°03'0 0.0
2018-Jun-11 20:29N 44°02' E 010°03'0 0.0
2018-Jun-11 19:59N 44°02' E 010°03'0 0.0
2018-Jun-11 19:29N 44°02' E 010°03'0 0.0
2018-Jun-11 18:59N 44°02' E 010°03'0 0.0
2018-Jun-11 18:29N 44°02' E 010°03'0 0.0
2018-Jun-11 17:53N 44°02' E 010°03'0 0.0
2018-Jun-11 17:26N 44°02' E 010°03'0 0.0
2018-Jun-11 16:59N 44°02' E 010°03'0 0.0
2018-Jun-11 16:26N 44°02' E 010°03'0 0.0
2018-Jun-11 15:56N 44°02' E 010°03'0 0.0
2018-Jun-11 15:29N 44°02' E 010°03'0 0.0
2018-Jun-11 14:59N 44°02' E 010°03'0 0.0
2018-Jun-11 14:29N 44°02' E 010°03'0 0.0
2018-Jun-11 13:59N 44°02' E 010°03'0 0.0
2018-Jun-11 13:29N 44°02' E 010°03'0 0.0
2018-Jun-11 12:59N 44°02' E 010°03'0 0.0
2018-Jun-11 12:26N 44°02' E 010°03'0 0.0
2018-Jun-11 11:59N 44°02' E 010°03'0 0.0
2018-Jun-11 11:29N 44°02' E 010°03'0 0.0
2018-Jun-11 10:59N 44°02' E 010°03'0 0.0
2018-Jun-11 10:14N 44°02' E 010°03'0 0.0
2018-Jun-11 09:56N 44°02' E 010°03'0 0.0
2018-Jun-11 09:14N 44°02' E 010°03'0 0.0
2018-Jun-11 08:59N 44°02' E 010°03'0 0.0
2018-Jun-11 08:26N 44°02' E 010°03'0 0.0
2018-Jun-11 07:53N 44°02' E 010°03'0 0.0
2018-Jun-11 07:29N 44°02' E 010°03'0 0.0
2018-Jun-11 06:58N 44°02' E 010°03'0 0.0
2018-Jun-11 06:28N 44°02' E 010°03'0 0.0
2018-Jun-11 05:58N 44°02' E 010°03'0 0.0
2018-Jun-11 05:28N 44°02' E 010°03'0 0.0
2018-Jun-11 04:58N 44°02' E 010°03'0 0.0
2018-Jun-11 04:28N 44°02' E 010°03'0 0.0
2018-Jun-11 03:58N 44°02' E 010°03'0 0.0
2018-Jun-11 03:28N 44°02' E 010°03'0 0.0
2018-Jun-11 02:58N 44°02' E 010°03'0 0.0
2018-Jun-11 02:28N 44°02' E 010°03'0 0.0
2018-Jun-11 01:55N 44°02' E 010°03'0 0.0
2018-Jun-11 01:28N 44°02' E 010°03'0 0.0
2018-Jun-11 00:58N 44°02' E 010°03'0 0.0
2018-Jun-11 00:28N 44°02' E 010°03'0 0.0
2018-Jun-10 23:58N 44°02' E 010°03'0 0.0
2018-Jun-10 23:25N 44°02' E 010°03'0 0.0
2018-Jun-10 22:55N 44°02' E 010°03'0 0.0
2018-Jun-10 22:25N 44°02' E 010°03'0 0.0
2018-Jun-10 21:58N 44°02' E 010°03'0 0.0
2018-Jun-10 21:28N 44°02' E 010°03'0 0.0
2018-Jun-10 20:58N 44°02' E 010°03'0 0.0
2018-Jun-10 20:28N 44°02' E 010°03'0 0.0
2018-Jun-10 19:55N 44°02' E 010°03'0 0.0
2018-Jun-10 19:25N 44°02' E 010°03'0 0.0
2018-Jun-10 18:55N 44°02' E 010°03'0 0.0
2018-Jun-10 18:28N 44°02' E 010°03'0 0.0
2018-Jun-10 17:58N 44°02' E 010°03'0 0.0
2018-Jun-10 17:28N 44°02' E 010°03'0 0.0
2018-Jun-10 16:58N 44°02' E 010°03'0 0.0
2018-Jun-10 16:25N 44°02' E 010°03'0 0.0
2018-Jun-10 15:58N 44°02' E 010°03'0 0.0
2018-Jun-10 15:25N 44°02' E 010°03'0 0.0
2018-Jun-10 14:55N 44°02' E 010°03'0 0.0
2018-Jun-10 13:55N 44°02' E 010°03'0 0.0
2018-Jun-10 13:28N 44°02' E 010°03'0 0.0
2018-Jun-10 12:58N 44°02' E 010°03'0 0.0
2018-Jun-10 12:25N 44°02' E 010°03'0 0.0
2018-Jun-10 11:58N 44°02' E 010°03'0 0.0
2018-Jun-10 11:25N 44°02' E 010°03'0 0.0
2018-Jun-10 10:55N 44°02' E 010°03'0 0.0
2018-Jun-10 10:28N 44°02' E 010°03'0 0.0
2018-Jun-10 09:58N 44°02' E 010°03'0 0.0
2018-Jun-10 09:28N 44°02' E 010°03'0 0.0
2018-Jun-10 08:55N 44°02' E 010°03'0 0.0
2018-Jun-10 08:28N 44°02' E 010°03'0 0.1
2018-Jun-10 07:58N 44°02' E 010°03'1 1.8
2018-Jun-10 07:26N 44°01' E 010°02'1 1.2
2018-Jun-10 06:59N 44°01' E 010°02'0 0.1
2018-Jun-10 06:29N 44°01' E 010°02'0 0.0
2018-Jun-10 05:59N 44°01' E 010°02'0 0.0
2018-Jun-10 05:29N 44°01' E 010°02'0 0.0
2018-Jun-10 04:59N 44°01' E 010°02'0 0.0
2018-Jun-10 04:26N 44°01' E 010°02'0 0.0
2018-Jun-10 03:59N 44°01' E 010°02'0 0.0
2018-Jun-10 03:29N 44°01' E 010°02'0 0.0
2018-Jun-10 02:59N 44°01' E 010°02'0 0.0
2018-Jun-10 02:29N 44°01' E 010°02'0 0.0
2018-Jun-10 01:59N 44°01' E 010°02'0 0.0
2018-Jun-10 01:29N 44°01' E 010°02'0 0.0
2018-Jun-10 00:56N 44°01' E 010°02'0 0.0
2018-Jun-10 00:29N 44°01' E 010°02'0 0.0
2018-Jun-09 23:56N 44°01' E 010°02'0 0.0
2018-Jun-09 23:29N 44°01' E 010°02'0 0.0
2018-Jun-09 22:59N 44°01' E 010°02'0 0.0
2018-Jun-09 22:29N 44°01' E 010°02'0 0.0
2018-Jun-09 21:59N 44°01' E 010°02'0 0.0
2018-Jun-09 21:29N 44°01' E 010°02'0 0.0
2018-Jun-09 20:56N 44°01' E 010°02'0 0.0
2018-Jun-09 20:29N 44°01' E 010°02'0 0.0
2018-Jun-09 19:59N 44°01' E 010°02'0 0.0
2018-Jun-09 19:29N 44°01' E 010°02'0 0.0
2018-Jun-09 18:59N 44°01' E 010°02'0 0.0
2018-Jun-09 18:29N 44°01' E 010°02'0 0.0
2018-Jun-09 17:56N 44°01' E 010°02'0 0.0
2018-Jun-09 17:29N 44°01' E 010°02'0 0.0
2018-Jun-09 16:56N 44°01' E 010°02'0 0.0
2018-Jun-09 16:29N 44°01' E 010°02'0 0.0
2018-Jun-09 15:59N 44°01' E 010°02'0 0.0
2018-Jun-09 14:59N 44°01' E 010°02'0 0.0
2018-Jun-09 14:29N 44°01' E 010°02'0 0.0
2018-Jun-09 13:59N 44°01' E 010°02'0 0.0
2018-Jun-09 13:29N 44°01' E 010°02'0 0.0
2018-Jun-09 12:59N 44°01' E 010°02'0 0.0
2018-Jun-09 12:29N 44°01' E 010°02'0 0.0
2018-Jun-09 11:59N 44°01' E 010°02'0 0.0
2018-Jun-09 11:29N 44°01' E 010°02'0 0.0
2018-Jun-09 10:59N 44°01' E 010°02'0 0.0
2018-Jun-09 10:29N 44°01' E 010°02'0 0.0
2018-Jun-09 09:59N 44°01' E 010°02'0 0.0
2018-Jun-09 09:29N 44°01' E 010°02'0 0.0
2018-Jun-09 09:00N 44°01' E 010°02'0 0.0
2018-Jun-09 08:30N 44°01' E 010°02'0 0.0
2018-Jun-09 08:00N 44°01' E 010°02'0 0.0
2018-Jun-09 07:30N 44°01' E 010°02'0 0.0
2018-Jun-09 07:00N 44°01' E 010°02'0 0.0
2018-Jun-09 06:30N 44°01' E 010°02'0 0.0
2018-Jun-09 06:00N 44°01' E 010°02'0 0.0
2018-Jun-09 05:30N 44°01' E 010°02'0 0.2
2018-Jun-09 05:00N 44°01' E 010°02'0 1.0
2018-Jun-09 04:30N 44°01' E 010°01'1 3.0
2018-Jun-09 04:00N 44°00' E 009°60'3 5.3
2018-Jun-09 03:30N 43°58' E 009°57'3 5.3
2018-Jun-09 03:00N 43°56' E 009°54'3 5.8
2018-Jun-09 02:30N 43°54' E 009°51'3 6.2
2018-Jun-09 02:00N 43°52' E 009°48'3 6.3
2018-Jun-09 01:30N 43°50' E 009°45'3 6.3
2018-Jun-09 01:00N 43°48' E 009°41'3 6.4
2018-Jun-09 00:30N 43°46' E 009°38'3 6.4
2018-Jun-09 00:00N 43°44' E 009°35'3 6.4
2018-Jun-08 23:30N 43°42' E 009°31'3 6.6
2018-Jun-08 23:00N 43°40' E 009°28'3 6.7
2018-Jun-08 22:30N 43°38' E 009°24'3 6.6
2018-Jun-08 22:00N 43°36' E 009°20'3 6.6
2018-Jun-08 21:30N 43°34' E 009°17'3 6.8
2018-Jun-08 21:00N 43°32' E 009°13'3 7.0
2018-Jun-08 20:30N 43°30' E 009°09'3 6.9
2018-Jun-08 20:00N 43°28' E 009°06'4 6.8
2018-Jun-08 19:24N 43°25' E 009°01'  
Track history (hours):
 
Tides and Currents Weather Stations Pressure Air Temp Water Temp Dewpoint Dewpoint Depression Visibility Wind Speed Wind Dir Waves Ship Positions

River Elbe

Last reported at 2018-Jun-17 13:20 UTC. Time now 2018-Jun-21 03:00 UTC.
Position N 42°59' E 006°01'.

Length 89 m; draft 3.4 m.

Type: Cargo ship. MMSI: 351895000.

Date/timePositionNaut miles runAvg speedWind from/ knotsBaromVisibWave heightAir tempDewpointWater temp
2018-Jun-17 13:20N 42°59' E 006°01'2 5.7
2018-Jun-17 13:00N 42°59' E 006°03'4 6.1
2018-Jun-17 12:17N 42°58' E 006°09'5 6.1
2018-Jun-17 11:30N 42°57' E 006°16'7 5.5
2018-Jun-17 10:10N 42°58' E 006°26'25 6.7
2018-Jun-17 06:29N 43°06' E 006°58'4 7.2
2018-Jun-17 06:00N 43°07' E 007°02'4 7.1
2018-Jun-17 05:29N 43°08' E 007°07'3 7.3
2018-Jun-17 05:00N 43°09' E 007°11'4 7.2
2018-Jun-17 04:30N 43°10' E 007°16'4 7.1
2018-Jun-17 04:00N 43°11' E 007°21'3 7.1
2018-Jun-17 03:30N 43°13' E 007°25'3 6.9
2018-Jun-17 03:00N 43°14' E 007°30'3 6.8
2018-Jun-17 02:30N 43°15' E 007°34'3 6.8
2018-Jun-17 02:00N 43°15' E 007°39'3 6.6
2018-Jun-17 01:30N 43°16' E 007°43'3 6.5
2018-Jun-17 01:00N 43°17' E 007°48'3 6.5
2018-Jun-17 00:29N 43°18' E 007°52'3 6.4
2018-Jun-17 00:00N 43°19' E 007°56'3 6.4
2018-Jun-16 23:30N 43°21' E 008°00'3 6.4
2018-Jun-16 22:59N 43°22' E 008°04'3 6.5
2018-Jun-16 22:30N 43°24' E 008°08'3 6.4
2018-Jun-16 22:00N 43°25' E 008°12'3 6.3
2018-Jun-16 21:30N 43°26' E 008°16'3 6.3
2018-Jun-16 20:59N 43°28' E 008°20'3 6.4
2018-Jun-16 20:30N 43°29' E 008°24'3 6.6
2018-Jun-16 20:00N 43°30' E 008°28'3 6.8
2018-Jun-16 19:30N 43°32' E 008°32'3 6.9
2018-Jun-16 19:00N 43°33' E 008°37'3 6.9
2018-Jun-16 18:30N 43°34' E 008°41'3 6.8
2018-Jun-16 18:00N 43°36' E 008°45'3 5.4
2018-Jun-16 17:30N 43°37' E 008°49'0 0.6
2018-Jun-16 17:00N 43°37' E 008°48'0 0.7
2018-Jun-16 16:30N 43°37' E 008°48'0 0.8
2018-Jun-16 16:00N 43°37' E 008°47'0 0.8
2018-Jun-16 15:30N 43°37' E 008°47'0 0.7
2018-Jun-16 14:59N 43°37' E 008°46'2 4.1
2018-Jun-16 14:30N 43°38' E 008°49'3 6.4
2018-Jun-16 14:00N 43°39' E 008°53'3 6.5
2018-Jun-16 13:30N 43°41' E 008°57'4 7.7
2018-Jun-16 13:00N 43°42' E 009°02'4 7.5
2018-Jun-16 12:30N 43°44' E 009°06'4 7.4
2018-Jun-16 12:00N 43°45' E 009°11'4 7.3
2018-Jun-16 11:30N 43°47' E 009°16'4 7.2
2018-Jun-16 11:00N 43°48' E 009°20'4 7.1
2018-Jun-16 10:30N 43°50' E 009°25'4 7.2
2018-Jun-16 10:00N 43°51' E 009°29'4 7.3
2018-Jun-16 09:30N 43°52' E 009°34'4 7.4
2018-Jun-16 09:00N 43°54' E 009°39'4 7.6
2018-Jun-16 08:30N 43°56' E 009°43'4 7.7
2018-Jun-16 08:00N 43°57' E 009°48'4 7.7
2018-Jun-16 07:30N 43°58' E 009°54'4 7.6
2018-Jun-16 07:00N 43°59' E 009°59'3 5.9
2018-Jun-16 06:30N 44°01' E 010°02'0 0.5
2018-Jun-16 06:00N 44°01' E 010°02'1 1.2
2018-Jun-16 05:30N 44°01' E 010°01'0 0.2
2018-Jun-16 05:00N 44°01' E 010°01'0 0.0
2018-Jun-16 04:30N 44°01' E 010°01'0 0.0
2018-Jun-16 04:00N 44°01' E 010°01'0 0.1
2018-Jun-16 03:30N 44°01' E 010°01'0 0.0
2018-Jun-16 03:00N 44°01' E 010°01'0 0.0
2018-Jun-16 02:30N 44°01' E 010°01'0 0.0
2018-Jun-16 02:00N 44°01' E 010°01'0 0.0
2018-Jun-16 01:30N 44°01' E 010°01'0 0.0
2018-Jun-16 01:00N 44°01' E 010°01'0 0.0
2018-Jun-16 00:30N 44°01' E 010°01'0 0.0
2018-Jun-16 00:00N 44°01' E 010°01'0 0.0
2018-Jun-15 23:30N 44°01' E 010°01'0 0.0
2018-Jun-15 23:00N 44°01' E 010°01'0 0.1
2018-Jun-15 22:30N 44°01' E 010°01'0 0.0
2018-Jun-15 22:00N 44°01' E 010°01'0 0.0
2018-Jun-15 21:30N 44°01' E 010°01'0 0.0
2018-Jun-15 21:00N 44°01' E 010°01'0 0.0
2018-Jun-15 20:30N 44°01' E 010°01'0 0.1
2018-Jun-15 20:00N 44°01' E 010°01'0 0.0
2018-Jun-15 19:30N 44°01' E 010°01'0 0.0
2018-Jun-15 18:57N 44°01' E 010°01'0 0.0
2018-Jun-15 18:30N 44°01' E 010°01'0 0.0
2018-Jun-15 18:00N 44°01' E 010°01'0 0.0
2018-Jun-15 17:30N 44°01' E 010°01'0 0.0
2018-Jun-15 17:00N 44°01' E 010°01'0 0.0
2018-Jun-15 16:30N 44°01' E 010°01'0 0.0
2018-Jun-15 16:00N 44°01' E 010°01'0 0.0
2018-Jun-15 15:30N 44°01' E 010°01'0 0.0
2018-Jun-15 15:00N 44°01' E 010°01'0 0.0
2018-Jun-15 14:30N 44°01' E 010°01'0 0.0
2018-Jun-15 14:00N 44°01' E 010°01'0 0.0
2018-Jun-15 13:30N 44°01' E 010°01'0 0.0
2018-Jun-15 13:00N 44°01' E 010°01'0 0.0
2018-Jun-15 12:30N 44°01' E 010°01'0 0.0
2018-Jun-15 12:00N 44°01' E 010°01'0 0.0
2018-Jun-15 11:30N 44°01' E 010°01'0 0.0
2018-Jun-15 11:00N 44°01' E 010°01'0 0.0
2018-Jun-15 10:30N 44°01' E 010°01'0 0.0
2018-Jun-15 10:00N 44°01' E 010°01'0 0.0
2018-Jun-15 09:30N 44°01' E 010°01'0 0.0
2018-Jun-15 08:57N 44°01' E 010°01'0 0.1
2018-Jun-15 08:30N 44°01' E 010°01'0 0.1
2018-Jun-15 08:00N 44°01' E 010°01'0 0.0
2018-Jun-15 07:30N 44°01' E 010°01'0 0.0
2018-Jun-15 07:00N 44°01' E 010°01'0 0.0
2018-Jun-15 06:24N 44°01' E 010°01'0 0.0
2018-Jun-15 06:00N 44°01' E 010°01'0 0.0
2018-Jun-15 05:30N 44°01' E 010°01'0 0.0
2018-Jun-15 04:57N 44°01' E 010°01'0 0.0
2018-Jun-15 04:30N 44°01' E 010°01'0 0.0
2018-Jun-15 04:00N 44°01' E 010°01'0 0.0
2018-Jun-15 03:27N 44°01' E 010°01'0 0.0
2018-Jun-15 03:00N 44°01' E 010°01'0 0.0
2018-Jun-15 02:30N 44°01' E 010°01'0 0.0
2018-Jun-15 02:00N 44°01' E 010°01'0 0.0
2018-Jun-15 01:30N 44°01' E 010°01'0 0.1
2018-Jun-15 01:00N 44°01' E 010°01'0 0.1
2018-Jun-15 00:30N 44°01' E 010°01'0 0.0
2018-Jun-15 00:00N 44°01' E 010°01'0 0.1
2018-Jun-14 23:30N 44°01' E 010°01'0 0.0
2018-Jun-14 23:00N 44°01' E 010°01'0 0.0
2018-Jun-14 22:30N 44°01' E 010°01'0 0.0
2018-Jun-14 22:00N 44°01' E 010°01'0 0.0
2018-Jun-14 21:30N 44°01' E 010°01'0 0.0
2018-Jun-14 21:00N 44°01' E 010°01'0 0.0
2018-Jun-14 20:30N 44°01' E 010°01'0 0.0
2018-Jun-14 20:00N 44°01' E 010°01'0 0.0
2018-Jun-14 19:30N 44°01' E 010°01'0 0.0
2018-Jun-14 19:00N 44°01' E 010°01'0 0.0
2018-Jun-14 18:30N 44°01' E 010°01'0 0.0
2018-Jun-14 18:00N 44°01' E 010°01'0 0.0
2018-Jun-14 17:30N 44°01' E 010°01'0 0.0
2018-Jun-14 17:00N 44°01' E 010°01'0 0.0
2018-Jun-14 16:27N 44°01' E 010°01'0 0.0
2018-Jun-14 16:00N 44°01' E 010°01'0 0.1
2018-Jun-14 15:27N 44°01' E 010°01'0 0.0
2018-Jun-14 15:00N 44°01' E 010°01'0 0.1
2018-Jun-14 14:30N 44°01' E 010°01'0 0.0
2018-Jun-14 14:00N 44°01' E 010°01'0 0.0
2018-Jun-14 13:30N 44°01' E 010°01'0 0.0
2018-Jun-14 13:00N 44°01' E 010°01'0 0.0
2018-Jun-14 12:27N 44°01' E 010°01'0 0.0
2018-Jun-14 12:00N 44°01' E 010°01'0 0.0
2018-Jun-14 11:30N 44°01' E 010°01'0 0.0
2018-Jun-14 11:00N 44°01' E 010°01'0 0.0
2018-Jun-14 10:30N 44°01' E 010°01'0 0.0
2018-Jun-14 10:00N 44°01' E 010°01'0 0.0
2018-Jun-14 09:30N 44°01' E 010°01'0 0.0
2018-Jun-14 09:00N 44°01' E 010°01'0 0.1
2018-Jun-14 08:27N 44°01' E 010°01'0 0.1
2018-Jun-14 08:00N 44°01' E 010°01'0 0.0
2018-Jun-14 07:30N 44°01' E 010°01'0 0.1
2018-Jun-14 07:00N 44°01' E 010°01'0 0.0
2018-Jun-14 06:27N 44°01' E 010°01'0 0.0
2018-Jun-14 06:00N 44°01' E 010°01'0 0.0
2018-Jun-14 05:30N 44°01' E 010°01'0 0.1
2018-Jun-14 05:00N 44°01' E 010°01'0 0.1
2018-Jun-14 04:30N 44°01' E 010°01'0 0.0
2018-Jun-14 04:00N 44°01' E 010°01'0 0.0
2018-Jun-14 03:30N 44°01' E 010°01'0 0.0
2018-Jun-14 02:57N 44°01' E 010°01'0 0.0
2018-Jun-14 02:27N 44°01' E 010°01'0 0.0
2018-Jun-14 02:00N 44°01' E 010°01'0 0.0
2018-Jun-14 01:30N 44°01' E 010°01'0 0.0
2018-Jun-14 01:00N 44°01' E 010°01'0 0.0
2018-Jun-14 00:30N 44°01' E 010°01'0 0.0
2018-Jun-14 00:00N 44°01' E 010°01'0 0.0
2018-Jun-13 23:30N 44°01' E 010°01'0 0.0
2018-Jun-13 23:00N 44°01' E 010°01'0 0.0
2018-Jun-13 22:30N 44°01' E 010°01'0 0.0
2018-Jun-13 22:00N 44°01' E 010°01'0 0.0
2018-Jun-13 21:30N 44°01' E 010°01'0 0.1
2018-Jun-13 21:00N 44°01' E 010°01'0 0.0
2018-Jun-13 20:30N 44°01' E 010°01'0 0.0
2018-Jun-13 20:00N 44°01' E 010°01'0 0.0
2018-Jun-13 19:30N 44°01' E 010°01'0 0.0
2018-Jun-13 19:00N 44°01' E 010°01'0 0.0
2018-Jun-13 18:30N 44°01' E 010°01'0 0.0
2018-Jun-13 18:00N 44°01' E 010°01'0 0.0
2018-Jun-13 17:30N 44°01' E 010°01'0 0.0
2018-Jun-13 17:00N 44°01' E 010°01'0 0.0
2018-Jun-13 16:30N 44°01' E 010°01'0 0.0
2018-Jun-13 16:00N 44°01' E 010°01'0 0.0
2018-Jun-13 15:30N 44°01' E 010°01'0 0.0
2018-Jun-13 15:00N 44°01' E 010°01'0 0.0
2018-Jun-13 14:30N 44°01' E 010°01'0 0.0
2018-Jun-13 14:00N 44°01' E 010°01'0 0.0
2018-Jun-13 13:30N 44°01' E 010°01'0 0.0
2018-Jun-13 12:57N 44°01' E 010°01'0 0.0
2018-Jun-13 12:30N 44°01' E 010°01'0 0.0
2018-Jun-13 12:00N 44°01' E 010°01'0 0.0
2018-Jun-13 11:30N 44°01' E 010°01'0 0.0
2018-Jun-13 11:00N 44°01' E 010°01'0 0.1
2018-Jun-13 10:30N 44°01' E 010°01'0 0.0
2018-Jun-13 10:00N 44°01' E 010°01'0 0.0
2018-Jun-13 09:30N 44°01' E 010°01'0 0.0
2018-Jun-13 09:00N 44°01' E 010°01'0 0.0
2018-Jun-13 08:30N 44°01' E 010°01'0 0.0
2018-Jun-13 08:00N 44°01' E 010°01'0 0.0
2018-Jun-13 07:30N 44°01' E 010°01'0 0.0
2018-Jun-13 07:00N 44°01' E 010°01'0 0.0
2018-Jun-13 06:30N 44°01' E 010°01'0 0.0
2018-Jun-13 06:00N 44°01' E 010°01'0 0.0
2018-Jun-13 05:30N 44°01' E 010°01'0 0.0
2018-Jun-13 05:00N 44°01' E 010°01'0 0.0
2018-Jun-13 04:30N 44°01' E 010°01'0 0.0
2018-Jun-13 04:00N 44°01' E 010°01'0 0.0
2018-Jun-13 03:30N 44°01' E 010°01'0 0.0
2018-Jun-13 03:00N 44°01' E 010°01'0 0.0
2018-Jun-13 02:30N 44°01' E 010°01'0 0.0
2018-Jun-13 02:00N 44°01' E 010°01'0 0.0
2018-Jun-13 01:30N 44°01' E 010°01'0 0.0
2018-Jun-13 01:00N 44°01' E 010°01'0 0.0
2018-Jun-13 00:30N 44°01' E 010°01'0 0.1
2018-Jun-13 00:00N 44°01' E 010°01'0 0.0
2018-Jun-12 23:30N 44°01' E 010°01'0 0.0
2018-Jun-12 23:00N 44°01' E 010°01'0 0.0
2018-Jun-12 22:30N 44°01' E 010°01'0 0.0
2018-Jun-12 22:00N 44°01' E 010°01'0 0.0
2018-Jun-12 21:30N 44°01' E 010°01'0 0.0
2018-Jun-12 21:00N 44°01' E 010°01'0 0.0
2018-Jun-12 20:30N 44°01' E 010°01'0 0.0
2018-Jun-12 20:00N 44°01' E 010°01'0 0.0
2018-Jun-12 19:30N 44°01' E 010°01'0 0.0
2018-Jun-12 19:00N 44°01' E 010°01'0 0.0
2018-Jun-12 18:30N 44°01' E 010°01'0 0.0
2018-Jun-12 18:00N 44°01' E 010°01'0 0.0
2018-Jun-12 17:30N 44°01' E 010°01'0 0.0
2018-Jun-12 17:00N 44°01' E 010°01'0 0.0
2018-Jun-12 16:30N 44°01' E 010°01'0 0.0
2018-Jun-12 16:00N 44°01' E 010°01'0 0.0
2018-Jun-12 15:28N 44°01' E 010°01'0 0.0
2018-Jun-12 15:00N 44°01' E 010°01'0 0.0
2018-Jun-12 14:30N 44°01' E 010°01'0 0.0
2018-Jun-12 14:00N 44°01' E 010°01'0 0.0
2018-Jun-12 13:30N 44°01' E 010°01'0 0.0
2018-Jun-12 13:00N 44°01' E 010°01'0 0.0
2018-Jun-12 12:30N 44°01' E 010°01'0 0.0
2018-Jun-12 12:00N 44°01' E 010°01'0 0.0
2018-Jun-12 11:30N 44°01' E 010°01'0 0.0
2018-Jun-12 11:00N 44°01' E 010°01'0 0.5
2018-Jun-12 10:30N 44°01' E 010°02'1 2.0
2018-Jun-12 09:59N 44°02' E 010°03'0 0.0
2018-Jun-12 09:29N 44°02' E 010°03'0 0.0
2018-Jun-12 08:53N 44°02' E 010°03'0 0.0
2018-Jun-12 08:26N 44°02' E 010°03'0 0.0
2018-Jun-12 07:50N 44°02' E 010°03'0 0.0
2018-Jun-12 07:29N 44°02' E 010°03'0 0.0
2018-Jun-12 06:59N 44°02' E 010°03'0 0.0
2018-Jun-12 06:29N 44°02' E 010°03'0 0.0
2018-Jun-12 05:59N 44°02' E 010°03'0 0.0
2018-Jun-12 05:26N 44°02' E 010°03'0 0.0
2018-Jun-12 04:59N 44°02' E 010°03'0 0.0
2018-Jun-12 04:26N 44°02' E 010°03'0 0.0
2018-Jun-12 03:59N 44°02' E 010°03'0 0.0
2018-Jun-12 03:29N 44°02' E 010°03'0 0.0
2018-Jun-12 02:59N 44°02' E 010°03'0 0.0
2018-Jun-12 02:29N 44°02' E 010°03'0 0.0
2018-Jun-12 01:59N 44°02' E 010°03'0 0.0
2018-Jun-12 01:29N 44°02' E 010°03'0 0.0
2018-Jun-12 00:59N 44°02' E 010°03'0 0.0
2018-Jun-12 00:26N 44°02' E 010°03'0 0.0
2018-Jun-11 23:56N 44°02' E 010°03'0 0.0
2018-Jun-11 23:26N 44°02' E 010°03'0 0.0
2018-Jun-11 22:59N 44°02' E 010°03'0 0.0
2018-Jun-11 22:29N 44°02' E 010°03'0 0.0
2018-Jun-11 21:56N 44°02' E 010°03'0 0.0
2018-Jun-11 21:29N 44°02' E 010°03'0 0.0
2018-Jun-11 20:53N 44°02' E 010°03'0 0.0
2018-Jun-11 20:29N 44°02' E 010°03'0 0.0
2018-Jun-11 19:59N 44°02' E 010°03'0 0.0
2018-Jun-11 19:29N 44°02' E 010°03'0 0.0
2018-Jun-11 18:59N 44°02' E 010°03'0 0.0
2018-Jun-11 18:29N 44°02' E 010°03'0 0.0
2018-Jun-11 17:53N 44°02' E 010°03'0 0.0
2018-Jun-11 17:26N 44°02' E 010°03'0 0.0
2018-Jun-11 16:59N 44°02' E 010°03'0 0.0
2018-Jun-11 16:26N 44°02' E 010°03'0 0.0
2018-Jun-11 15:56N 44°02' E 010°03'0 0.0
2018-Jun-11 15:29N 44°02' E 010°03'0 0.0
2018-Jun-11 14:59N 44°02' E 010°03'0 0.0
2018-Jun-11 14:29N 44°02' E 010°03'0 0.0
2018-Jun-11 13:59N 44°02' E 010°03'0 0.0
2018-Jun-11 13:29N 44°02' E 010°03'0 0.0
2018-Jun-11 12:59N 44°02' E 010°03'0 0.0
2018-Jun-11 12:26N 44°02' E 010°03'0 0.0
2018-Jun-11 11:59N 44°02' E 010°03'0 0.0
2018-Jun-11 11:29N 44°02' E 010°03'0 0.0
2018-Jun-11 10:59N 44°02' E 010°03'0 0.0
2018-Jun-11 10:14N 44°02' E 010°03'0 0.0
2018-Jun-11 09:56N 44°02' E 010°03'0 0.0
2018-Jun-11 09:14N 44°02' E 010°03'0 0.0
2018-Jun-11 08:59N 44°02' E 010°03'0 0.0
2018-Jun-11 08:26N 44°02' E 010°03'0 0.0
2018-Jun-11 07:53N 44°02' E 010°03'0 0.0
2018-Jun-11 07:29N 44°02' E 010°03'0 0.0
2018-Jun-11 06:58N 44°02' E 010°03'0 0.0
2018-Jun-11 06:28N 44°02' E 010°03'0 0.0
2018-Jun-11 05:58N 44°02' E 010°03'0 0.0
2018-Jun-11 05:28N 44°02' E 010°03'0 0.0
2018-Jun-11 04:58N 44°02' E 010°03'0 0.0
2018-Jun-11 04:28N 44°02' E 010°03'0 0.0
2018-Jun-11 03:58N 44°02' E 010°03'0 0.0
2018-Jun-11 03:28N 44°02' E 010°03'0 0.0
2018-Jun-11 02:58N 44°02' E 010°03'0 0.0
2018-Jun-11 02:28N 44°02' E 010°03'0 0.0
2018-Jun-11 01:55N 44°02' E 010°03'0 0.0
2018-Jun-11 01:28N 44°02' E 010°03'0 0.0
2018-Jun-11 00:58N 44°02' E 010°03'0 0.0
2018-Jun-11 00:28N 44°02' E 010°03'0 0.0
2018-Jun-10 23:58N 44°02' E 010°03'0 0.0
2018-Jun-10 23:25N 44°02' E 010°03'0 0.0
2018-Jun-10 22:55N 44°02' E 010°03'0 0.0
2018-Jun-10 22:25N 44°02' E 010°03'0 0.0
2018-Jun-10 21:58N 44°02' E 010°03'0 0.0
2018-Jun-10 21:28N 44°02' E 010°03'0 0.0
2018-Jun-10 20:58N 44°02' E 010°03'0 0.0
2018-Jun-10 20:28N 44°02' E 010°03'0 0.0
2018-Jun-10 19:55N 44°02' E 010°03'0 0.0
2018-Jun-10 19:25N 44°02' E 010°03'0 0.0
2018-Jun-10 18:55N 44°02' E 010°03'0 0.0
2018-Jun-10 18:28N 44°02' E 010°03'0 0.0
2018-Jun-10 17:58N 44°02' E 010°03'0 0.0
2018-Jun-10 17:28N 44°02' E 010°03'0 0.0
2018-Jun-10 16:58N 44°02' E 010°03'0 0.0
2018-Jun-10 16:25N 44°02' E 010°03'0 0.0
2018-Jun-10 15:58N 44°02' E 010°03'0 0.0
2018-Jun-10 15:25N 44°02' E 010°03'0 0.0
2018-Jun-10 14:55N 44°02' E 010°03'0 0.0
2018-Jun-10 13:55N 44°02' E 010°03'0 0.0
2018-Jun-10 13:28N 44°02' E 010°03'0 0.0
2018-Jun-10 12:58N 44°02' E 010°03'0 0.0
2018-Jun-10 12:25N 44°02' E 010°03'0 0.0
2018-Jun-10 11:58N 44°02' E 010°03'0 0.0
2018-Jun-10 11:25N 44°02' E 010°03'0 0.0
2018-Jun-10 10:55N 44°02' E 010°03'0 0.0
2018-Jun-10 10:28N 44°02' E 010°03'0 0.0
2018-Jun-10 09:58N 44°02' E 010°03'0 0.0
2018-Jun-10 09:28N 44°02' E 010°03'0 0.0
2018-Jun-10 08:55N 44°02' E 010°03'0 0.0
2018-Jun-10 08:28N 44°02' E 010°03'0 0.1
2018-Jun-10 07:58N 44°02' E 010°03'1 1.8
2018-Jun-10 07:26N 44°01' E 010°02'1 1.2
2018-Jun-10 06:59N 44°01' E 010°02'0 0.1
2018-Jun-10 06:29N 44°01' E 010°02'0 0.0
2018-Jun-10 05:59N 44°01' E 010°02'0 0.0
2018-Jun-10 05:29N 44°01' E 010°02'0 0.0
2018-Jun-10 04:59N 44°01' E 010°02'0 0.0
2018-Jun-10 04:26N 44°01' E 010°02'0 0.0
2018-Jun-10 03:59N 44°01' E 010°02'0 0.0
2018-Jun-10 03:29N 44°01' E 010°02'0 0.0
2018-Jun-10 02:59N 44°01' E 010°02'0 0.0
2018-Jun-10 02:29N 44°01' E 010°02'0 0.0
2018-Jun-10 01:59N 44°01' E 010°02'0 0.0
2018-Jun-10 01:29N 44°01' E 010°02'0 0.0
2018-Jun-10 00:56N 44°01' E 010°02'0 0.0
2018-Jun-10 00:29N 44°01' E 010°02'0 0.0
2018-Jun-09 23:56N 44°01' E 010°02'0 0.0
2018-Jun-09 23:29N 44°01' E 010°02'0 0.0
2018-Jun-09 22:59N 44°01' E 010°02'0 0.0
2018-Jun-09 22:29N 44°01' E 010°02'0 0.0
2018-Jun-09 21:59N 44°01' E 010°02'0 0.0
2018-Jun-09 21:29N 44°01' E 010°02'0 0.0
2018-Jun-09 20:56N 44°01' E 010°02'0 0.0
2018-Jun-09 20:29N 44°01' E 010°02'0 0.0
2018-Jun-09 19:59N 44°01' E 010°02'0 0.0
2018-Jun-09 19:29N 44°01' E 010°02'0 0.0
2018-Jun-09 18:59N 44°01' E 010°02'0 0.0
2018-Jun-09 18:29N 44°01' E 010°02'0 0.0
2018-Jun-09 17:56N 44°01' E 010°02'0 0.0
2018-Jun-09 17:29N 44°01' E 010°02'0 0.0
2018-Jun-09 16:56N 44°01' E 010°02'0 0.0
2018-Jun-09 16:29N 44°01' E 010°02'0 0.0
2018-Jun-09 15:59N 44°01' E 010°02'0 0.0
2018-Jun-09 14:59N 44°01' E 010°02'0 0.0
2018-Jun-09 14:29N 44°01' E 010°02'0 0.0
2018-Jun-09 13:59N 44°01' E 010°02'0 0.0
2018-Jun-09 13:29N 44°01' E 010°02'0 0.0
2018-Jun-09 12:59N 44°01' E 010°02'0 0.0
2018-Jun-09 12:29N 44°01' E 010°02'0 0.0
2018-Jun-09 11:59N 44°01' E 010°02'0 0.0
2018-Jun-09 11:29N 44°01' E 010°02'0 0.0
2018-Jun-09 10:59N 44°01' E 010°02'0 0.0
2018-Jun-09 10:29N 44°01' E 010°02'0 0.0
2018-Jun-09 09:59N 44°01' E 010°02'0 0.0
2018-Jun-09 09:29N 44°01' E 010°02'0 0.0
2018-Jun-09 09:00N 44°01' E 010°02'0 0.0
2018-Jun-09 08:30N 44°01' E 010°02'0 0.0
2018-Jun-09 08:00N 44°01' E 010°02'0 0.0
2018-Jun-09 07:30N 44°01' E 010°02'0 0.0
2018-Jun-09 07:00N 44°01' E 010°02'0 0.0
2018-Jun-09 06:30N 44°01' E 010°02'0 0.0
2018-Jun-09 06:00N 44°01' E 010°02'0 0.0
2018-Jun-09 05:30N 44°01' E 010°02'0 0.2
2018-Jun-09 05:00N 44°01' E 010°02'0 1.0
2018-Jun-09 04:30N 44°01' E 010°01'1 3.0
2018-Jun-09 04:00N 44°00' E 009°60'3 5.3
2018-Jun-09 03:30N 43°58' E 009°57'3 5.3
2018-Jun-09 03:00N 43°56' E 009°54'3 5.8
2018-Jun-09 02:30N 43°54' E 009°51'3 6.2
2018-Jun-09 02:00N 43°52' E 009°48'3 6.3
2018-Jun-09 01:30N 43°50' E 009°45'3 6.3
2018-Jun-09 01:00N 43°48' E 009°41'3 6.4
2018-Jun-09 00:30N 43°46' E 009°38'3 6.4
2018-Jun-09 00:00N 43°44' E 009°35'3 6.4
2018-Jun-08 23:30N 43°42' E 009°31'3 6.6
2018-Jun-08 23:00N 43°40' E 009°28'3 6.7
2018-Jun-08 22:30N 43°38' E 009°24'3 6.6
2018-Jun-08 22:00N 43°36' E 009°20'3 6.6
2018-Jun-08 21:30N 43°34' E 009°17'3 6.8
2018-Jun-08 21:00N 43°32' E 009°13'3 7.0
2018-Jun-08 20:30N 43°30' E 009°09'3 6.9
2018-Jun-08 20:00N 43°28' E 009°06'4 6.8
2018-Jun-08 19:24N 43°25' E 009°01'  

Dump ship's entire track history